sensor_id;sensor_type;location;lat;lon;timestamp;P1;durP1;ratioP1;P2;durP2;ratioP2
22571;SDS011;11452;53.368;14.658;2023-07-13T00:03:17;2.63;;;1.90;;
22571;SDS011;11452;53.368;14.658;2023-07-13T00:08:23;2.33;;;2.13;;
22571;SDS011;11452;53.368;14.658;2023-07-13T00:13:29;4.77;;;2.40;;
22571;SDS011;11452;53.368;14.658;2023-07-13T00:18:35;3.00;;;2.20;;
22571;SDS011;11452;53.368;14.658;2023-07-13T00:23:41;3.20;;;2.23;;
22571;SDS011;11452;53.368;14.658;2023-07-13T00:28:47;3.67;;;2.23;;
22571;SDS011;11452;53.368;14.658;2023-07-13T00:33:53;3.63;;;2.50;;
22571;SDS011;11452;53.368;14.658;2023-07-13T00:38:59;4.57;;;2.40;;
22571;SDS011;11452;53.368;14.658;2023-07-13T00:44:09;5.70;;;2.67;;
22571;SDS011;11452;53.368;14.658;2023-07-13T00:49:20;2.27;;;2.13;;
22571;SDS011;11452;53.368;14.658;2023-07-13T00:54:29;2.43;;;2.23;;
22571;SDS011;11452;53.368;14.658;2023-07-13T00:59:36;4.20;;;2.20;;
22571;SDS011;11452;53.368;14.658;2023-07-13T01:04:45;2.30;;;2.03;;
22571;SDS011;11452;53.368;14.658;2023-07-13T01:09:51;2.57;;;2.20;;
22571;SDS011;11452;53.368;14.658;2023-07-13T01:14:58;3.73;;;1.87;;
22571;SDS011;11452;53.368;14.658;2023-07-13T01:20:05;2.00;;;1.90;;
22571;SDS011;11452;53.368;14.658;2023-07-13T01:25:12;2.27;;;2.10;;
22571;SDS011;11452;53.368;14.658;2023-07-13T01:30:19;2.43;;;1.77;;
22571;SDS011;11452;53.368;14.658;2023-07-13T01:35:24;3.57;;;1.87;;
22571;SDS011;11452;53.368;14.658;2023-07-13T01:40:31;4.23;;;2.30;;
22571;SDS011;11452;53.368;14.658;2023-07-13T01:45:37;3.93;;;2.00;;
22571;SDS011;11452;53.368;14.658;2023-07-13T01:50:44;2.77;;;1.63;;
22571;SDS011;11452;53.368;14.658;2023-07-13T01:55:50;3.23;;;2.07;;
22571;SDS011;11452;53.368;14.658;2023-07-13T02:00:56;3.03;;;1.87;;
22571;SDS011;11452;53.368;14.658;2023-07-13T02:06:03;1.77;;;1.67;;
22571;SDS011;11452;53.368;14.658;2023-07-13T02:11:09;3.60;;;2.60;;
22571;SDS011;11452;53.368;14.658;2023-07-13T02:16:15;1.70;;;1.60;;
22571;SDS011;11452;53.368;14.658;2023-07-13T02:21:21;3.23;;;1.60;;
22571;SDS011;11452;53.368;14.658;2023-07-13T02:26:28;3.03;;;2.10;;
22571;SDS011;11452;53.368;14.658;2023-07-13T02:31:34;3.93;;;1.90;;
22571;SDS011;11452;53.368;14.658;2023-07-13T02:36:40;3.27;;;2.13;;
22571;SDS011;11452;53.368;14.658;2023-07-13T02:41:46;2.97;;;2.20;;
22571;SDS011;11452;53.368;14.658;2023-07-13T02:46:52;2.57;;;2.30;;
22571;SDS011;11452;53.368;14.658;2023-07-13T02:51:58;2.67;;;2.17;;
22571;SDS011;11452;53.368;14.658;2023-07-13T02:57:04;3.10;;;2.47;;
22571;SDS011;11452;53.368;14.658;2023-07-13T03:02:10;3.87;;;2.60;;
22571;SDS011;11452;53.368;14.658;2023-07-13T03:07:17;3.47;;;2.57;;
22571;SDS011;11452;53.368;14.658;2023-07-13T03:12:23;2.30;;;2.10;;
22571;SDS011;11452;53.368;14.658;2023-07-13T03:17:30;2.50;;;2.30;;
22571;SDS011;11452;53.368;14.658;2023-07-13T03:22:39;2.43;;;2.23;;
22571;SDS011;11452;53.368;14.658;2023-07-13T03:27:46;4.30;;;2.37;;
22571;SDS011;11452;53.368;14.658;2023-07-13T03:32:52;3.30;;;2.43;;
22571;SDS011;11452;53.368;14.658;2023-07-13T03:37:59;2.80;;;2.43;;
22571;SDS011;11452;53.368;14.658;2023-07-13T03:43:05;1.90;;;1.80;;
22571;SDS011;11452;53.368;14.658;2023-07-13T03:48:11;5.70;;;2.47;;
22571;SDS011;11452;53.368;14.658;2023-07-13T03:53:17;4.13;;;2.57;;
22571;SDS011;11452;53.368;14.658;2023-07-13T03:58:25;4.30;;;2.50;;
22571;SDS011;11452;53.368;14.658;2023-07-13T04:03:34;4.07;;;2.23;;
22571;SDS011;11452;53.368;14.658;2023-07-13T04:08:41;3.47;;;2.50;;
22571;SDS011;11452;53.368;14.658;2023-07-13T04:13:47;4.60;;;2.30;;
22571;SDS011;11452;53.368;14.658;2023-07-13T04:18:54;2.37;;;2.10;;
22571;SDS011;11452;53.368;14.658;2023-07-13T04:24:02;5.33;;;2.17;;
22571;SDS011;11452;53.368;14.658;2023-07-13T04:29:08;3.33;;;2.00;;
22571;SDS011;11452;53.368;14.658;2023-07-13T04:34:14;2.43;;;2.23;;
22571;SDS011;11452;53.368;14.658;2023-07-13T04:39:20;3.13;;;1.90;;
22571;SDS011;11452;53.368;14.658;2023-07-13T04:44:26;2.07;;;1.90;;
22571;SDS011;11452;53.368;14.658;2023-07-13T04:49:33;3.50;;;2.33;;
22571;SDS011;11452;53.368;14.658;2023-07-13T04:54:39;3.17;;;1.83;;
22571;SDS011;11452;53.368;14.658;2023-07-13T04:59:44;3.53;;;2.40;;
22571;SDS011;11452;53.368;14.658;2023-07-13T05:04:50;2.97;;;1.90;;
22571;SDS011;11452;53.368;14.658;2023-07-13T05:09:56;2.27;;;1.87;;
22571;SDS011;11452;53.368;14.658;2023-07-13T05:15:02;2.00;;;1.73;;
22571;SDS011;11452;53.368;14.658;2023-07-13T05:20:09;3.70;;;1.87;;
22571;SDS011;11452;53.368;14.658;2023-07-13T05:25:16;1.93;;;1.67;;
22571;SDS011;11452;53.368;14.658;2023-07-13T05:30:21;2.30;;;1.70;;
22571;SDS011;11452;53.368;14.658;2023-07-13T05:35:27;2.23;;;1.80;;
22571;SDS011;11452;53.368;14.658;2023-07-13T05:40:33;2.43;;;2.23;;
22571;SDS011;11452;53.368;14.658;2023-07-13T05:45:39;4.10;;;2.30;;
22571;SDS011;11452;53.368;14.658;2023-07-13T05:50:45;2.87;;;2.07;;
22571;SDS011;11452;53.368;14.658;2023-07-13T05:55:51;6.13;;;4.67;;
22571;SDS011;11452;53.368;14.658;2023-07-13T06:01:04;5.77;;;1.90;;
22571;SDS011;11452;53.368;14.658;2023-07-13T06:06:08;4.53;;;2.20;;
22571;SDS011;11452;53.368;14.658;2023-07-13T06:11:17;3.00;;;2.07;;
22571;SDS011;11452;53.368;14.658;2023-07-13T06:16:27;2.07;;;1.73;;
22571;SDS011;11452;53.368;14.658;2023-07-13T06:21:33;2.87;;;2.10;;
22571;SDS011;11452;53.368;14.658;2023-07-13T06:26:38;3.23;;;2.00;;
22571;SDS011;11452;53.368;14.658;2023-07-13T06:31:44;4.90;;;1.97;;
22571;SDS011;11452;53.368;14.658;2023-07-13T06:36:50;1.87;;;1.77;;
22571;SDS011;11452;53.368;14.658;2023-07-13T06:41:56;5.63;;;2.20;;
22571;SDS011;11452;53.368;14.658;2023-07-13T06:47:02;2.27;;;1.80;;
22571;SDS011;11452;53.368;14.658;2023-07-13T06:52:08;4.10;;;2.00;;
22571;SDS011;11452;53.368;14.658;2023-07-13T06:57:14;1.70;;;1.60;;
22571;SDS011;11452;53.368;14.658;2023-07-13T07:02:19;3.13;;;1.90;;
22571;SDS011;11452;53.368;14.658;2023-07-13T07:07:26;2.80;;;1.60;;
22571;SDS011;11452;53.368;14.658;2023-07-13T07:12:33;3.77;;;2.30;;
22571;SDS011;11452;53.368;14.658;2023-07-13T07:17:39;1.77;;;1.30;;
22571;SDS011;11452;53.368;14.658;2023-07-13T07:22:46;3.13;;;1.73;;
22571;SDS011;11452;53.368;14.658;2023-07-13T07:34:21;1.77;;;1.47;;
22571;SDS011;11452;53.368;14.658;2023-07-13T07:39:28;1.40;;;1.17;;
22571;SDS011;11452;53.368;14.658;2023-07-13T07:44:34;2.40;;;1.30;;
22571;SDS011;11452;53.368;14.658;2023-07-13T07:49:39;1.77;;;1.13;;
22571;SDS011;11452;53.368;14.658;2023-07-13T07:54:45;1.67;;;1.17;;
22571;SDS011;11452;53.368;14.658;2023-07-13T07:59:53;2.17;;;1.20;;
22571;SDS011;11452;53.368;14.658;2023-07-13T08:05:00;1.00;;;0.90;;
22571;SDS011;11452;53.368;14.658;2023-07-13T08:10:08;2.23;;;1.20;;
22571;SDS011;11452;53.368;14.658;2023-07-13T08:15:15;1.40;;;0.90;;
22571;SDS011;11452;53.368;14.658;2023-07-13T08:20:23;1.23;;;1.13;;
22571;SDS011;11452;53.368;14.658;2023-07-13T08:25:29;1.73;;;0.93;;
22571;SDS011;11452;53.368;14.658;2023-07-13T08:30:35;1.80;;;0.93;;
22571;SDS011;11452;53.368;14.658;2023-07-13T08:35:40;1.10;;;0.77;;
22571;SDS011;11452;53.368;14.658;2023-07-13T08:40:51;1.47;;;1.37;;
22571;SDS011;11452;53.368;14.658;2023-07-13T08:51:31;1.37;;;1.10;;
22571;SDS011;11452;53.368;14.658;2023-07-13T08:56:37;1.20;;;1.10;;
22571;SDS011;11452;53.368;14.658;2023-07-13T09:01:49;3.20;;;0.97;;
22571;SDS011;11452;53.368;14.658;2023-07-13T09:07:03;1.03;;;0.90;;
22571;SDS011;11452;53.368;14.658;2023-07-13T09:12:19;1.83;;;0.97;;
22571;SDS011;11452;53.368;14.658;2023-07-13T09:17:30;1.83;;;1.00;;
22571;SDS011;11452;53.368;14.658;2023-07-13T09:22:40;3.60;;;1.10;;
22571;SDS011;11452;53.368;14.658;2023-07-13T09:27:47;1.70;;;1.00;;
22571;SDS011;11452;53.368;14.658;2023-07-13T09:32:54;1.43;;;0.90;;
22571;SDS011;11452;53.368;14.658;2023-07-13T09:38:13;1.40;;;1.17;;
22571;SDS011;11452;53.368;14.658;2023-07-13T09:43:20;1.47;;;1.20;;
22571;SDS011;11452;53.368;14.658;2023-07-13T09:48:30;1.20;;;1.00;;
22571;SDS011;11452;53.368;14.658;2023-07-13T09:53:35;4.23;;;1.40;;
22571;SDS011;11452;53.368;14.658;2023-07-13T09:58:41;3.30;;;1.30;;
22571;SDS011;11452;53.368;14.658;2023-07-13T10:03:52;1.80;;;1.17;;
22571;SDS011;11452;53.368;14.658;2023-07-13T10:08:59;1.33;;;1.23;;
22571;SDS011;11452;53.368;14.658;2023-07-13T10:14:09;1.10;;;1.10;;
22571;SDS011;11452;53.368;14.658;2023-07-13T10:24:30;1.60;;;1.27;;
22571;SDS011;11452;53.368;14.658;2023-07-13T10:29:53;2.27;;;1.10;;
22571;SDS011;11452;53.368;14.658;2023-07-13T10:34:50;2.50;;;1.17;;
22571;SDS011;11452;53.368;14.658;2023-07-13T10:39:58;1.57;;;0.90;;
22571;SDS011;11452;53.368;14.658;2023-07-13T10:45:18;2.33;;;1.33;;
22571;SDS011;11452;53.368;14.658;2023-07-13T10:50:24;4.60;;;1.50;;
22571;SDS011;11452;53.368;14.658;2023-07-13T10:55:40;1.40;;;1.30;;
22571;SDS011;11452;53.368;14.658;2023-07-13T11:06:17;1.23;;;1.13;;
22571;SDS011;11452;53.368;14.658;2023-07-13T11:11:39;1.87;;;1.30;;
22571;SDS011;11452;53.368;14.658;2023-07-13T11:16:44;4.83;;;1.60;;
22571;SDS011;11452;53.368;14.658;2023-07-13T11:32:40;3.93;;;1.57;;
22571;SDS011;11452;53.368;14.658;2023-07-13T11:37:46;1.80;;;1.23;;
22571;SDS011;11452;53.368;14.658;2023-07-13T11:42:52;2.57;;;1.27;;
22571;SDS011;11452;53.368;14.658;2023-07-13T11:48:16;1.27;;;1.17;;
22571;SDS011;11452;53.368;14.658;2023-07-13T16:05:10;2.63;;;1.70;;
22571;SDS011;11452;53.368;14.658;2023-07-13T16:10:16;1.97;;;1.80;;
22571;SDS011;11452;53.368;14.658;2023-07-13T16:15:27;2.10;;;1.90;;
22571;SDS011;11452;53.368;14.658;2023-07-13T16:20:33;2.73;;;1.60;;
22571;SDS011;11452;53.368;14.658;2023-07-13T16:25:38;2.83;;;1.77;;
22571;SDS011;11452;53.368;14.658;2023-07-13T16:30:47;2.00;;;1.80;;
22571;SDS011;11452;53.368;14.658;2023-07-13T16:35:54;3.67;;;1.93;;
22571;SDS011;11452;53.368;14.658;2023-07-13T16:41:02;2.77;;;1.53;;
22571;SDS011;11452;53.368;14.658;2023-07-13T16:46:10;5.60;;;2.33;;
22571;SDS011;11452;53.368;14.658;2023-07-13T16:51:21;2.70;;;2.10;;
22571;SDS011;11452;53.368;14.658;2023-07-13T16:56:27;2.03;;;1.70;;
22571;SDS011;11452;53.368;14.658;2023-07-13T17:01:32;4.70;;;1.90;;
22571;SDS011;11452;53.368;14.658;2023-07-13T17:06:40;1.80;;;1.63;;
22571;SDS011;11452;53.368;14.658;2023-07-13T17:11:47;3.47;;;2.03;;
22571;SDS011;11452;53.368;14.658;2023-07-13T17:16:54;6.03;;;2.07;;
22571;SDS011;11452;53.368;14.658;2023-07-13T17:22:01;1.97;;;1.50;;
22571;SDS011;11452;53.368;14.658;2023-07-13T17:27:09;2.13;;;1.47;;
22571;SDS011;11452;53.368;14.658;2023-07-13T17:32:17;3.23;;;1.70;;
22571;SDS011;11452;53.368;14.658;2023-07-13T17:37:26;1.60;;;1.50;;
22571;SDS011;11452;53.368;14.658;2023-07-13T17:42:32;2.90;;;1.57;;
22571;SDS011;11452;53.368;14.658;2023-07-13T17:47:38;2.47;;;1.80;;
22571;SDS011;11452;53.368;14.658;2023-07-13T17:52:44;1.33;;;1.20;;
22571;SDS011;11452;53.368;14.658;2023-07-13T17:57:52;2.93;;;2.10;;
22571;SDS011;11452;53.368;14.658;2023-07-13T18:03:00;4.00;;;2.03;;
22571;SDS011;11452;53.368;14.658;2023-07-13T18:08:22;6.00;;;2.00;;
22571;SDS011;11452;53.368;14.658;2023-07-13T18:13:30;2.43;;;2.00;;
22571;SDS011;11452;53.368;14.658;2023-07-13T18:18:38;3.00;;;1.50;;
22571;SDS011;11452;53.368;14.658;2023-07-13T18:23:44;1.80;;;1.70;;
22571;SDS011;11452;53.368;14.658;2023-07-13T18:28:51;2.73;;;1.70;;
22571;SDS011;11452;53.368;14.658;2023-07-13T18:33:57;2.97;;;2.00;;
22571;SDS011;11452;53.368;14.658;2023-07-13T18:39:05;2.50;;;2.30;;
22571;SDS011;11452;53.368;14.658;2023-07-13T18:44:12;2.30;;;2.10;;
22571;SDS011;11452;53.368;14.658;2023-07-13T18:49:18;2.33;;;1.90;;
22571;SDS011;11452;53.368;14.658;2023-07-13T18:54:24;2.30;;;1.97;;
22571;SDS011;11452;53.368;14.658;2023-07-13T18:59:31;2.83;;;2.30;;
22571;SDS011;11452;53.368;14.658;2023-07-13T19:04:36;2.40;;;2.07;;
22571;SDS011;11452;53.368;14.658;2023-07-13T19:09:42;2.70;;;2.23;;
22571;SDS011;11452;53.368;14.658;2023-07-13T19:14:48;2.93;;;2.13;;
22571;SDS011;11452;53.368;14.658;2023-07-13T19:19:55;2.87;;;2.20;;
22571;SDS011;11452;53.368;14.658;2023-07-13T19:25:00;3.77;;;2.23;;
22571;SDS011;11452;53.368;14.658;2023-07-13T19:30:11;4.00;;;2.53;;
22571;SDS011;11452;53.368;14.658;2023-07-13T19:35:14;3.60;;;2.27;;
22571;SDS011;11452;53.368;14.658;2023-07-13T19:40:21;2.50;;;1.93;;
22571;SDS011;11452;53.368;14.658;2023-07-13T19:45:28;4.13;;;2.20;;
22571;SDS011;11452;53.368;14.658;2023-07-13T19:50:34;5.17;;;2.37;;
22571;SDS011;11452;53.368;14.658;2023-07-13T19:55:45;2.73;;;2.53;;
22571;SDS011;11452;53.368;14.658;2023-07-13T20:00:50;4.77;;;2.03;;
22571;SDS011;11452;53.368;14.658;2023-07-13T20:05:58;3.80;;;2.20;;
22571;SDS011;11452;53.368;14.658;2023-07-13T20:11:04;3.13;;;2.20;;
22571;SDS011;11452;53.368;14.658;2023-07-13T20:16:14;4.77;;;2.20;;
22571;SDS011;11452;53.368;14.658;2023-07-13T20:21:21;3.17;;;2.20;;
22571;SDS011;11452;53.368;14.658;2023-07-13T20:26:27;3.03;;;2.10;;
22571;SDS011;11452;53.368;14.658;2023-07-13T20:31:33;2.60;;;2.23;;
22571;SDS011;11452;53.368;14.658;2023-07-13T20:36:39;2.63;;;2.00;;
22571;SDS011;11452;53.368;14.658;2023-07-13T20:41:46;2.40;;;2.20;;
22571;SDS011;11452;53.368;14.658;2023-07-13T20:46:52;3.63;;;2.10;;
22571;SDS011;11452;53.368;14.658;2023-07-13T20:51:57;3.07;;;2.10;;
22571;SDS011;11452;53.368;14.658;2023-07-13T20:57:03;3.17;;;2.23;;
22571;SDS011;11452;53.368;14.658;2023-07-13T21:07:30;2.83;;;2.00;;
22571;SDS011;11452;53.368;14.658;2023-07-13T21:12:36;2.93;;;1.90;;
22571;SDS011;11452;53.368;14.658;2023-07-13T21:17:43;2.67;;;2.10;;
22571;SDS011;11452;53.368;14.658;2023-07-13T21:22:54;2.77;;;2.00;;
22571;SDS011;11452;53.368;14.658;2023-07-13T21:28:00;2.50;;;1.77;;
22571;SDS011;11452;53.368;14.658;2023-07-13T21:33:07;1.80;;;1.70;;
22571;SDS011;11452;53.368;14.658;2023-07-13T21:38:16;2.57;;;1.60;;
22571;SDS011;11452;53.368;14.658;2023-07-13T21:43:26;3.43;;;1.67;;
22571;SDS011;11452;53.368;14.658;2023-07-13T21:48:32;1.87;;;1.77;;
22571;SDS011;11452;53.368;14.658;2023-07-13T21:53:37;2.10;;;1.50;;
22571;SDS011;11452;53.368;14.658;2023-07-13T21:58:45;2.53;;;2.00;;
22571;SDS011;11452;53.368;14.658;2023-07-13T22:03:55;2.50;;;1.60;;
22571;SDS011;11452;53.368;14.658;2023-07-13T22:09:04;2.17;;;1.73;;
22571;SDS011;11452;53.368;14.658;2023-07-13T22:14:11;1.53;;;1.43;;
22571;SDS011;11452;53.368;14.658;2023-07-13T22:19:18;2.90;;;1.60;;
22571;SDS011;11452;53.368;14.658;2023-07-13T22:24:26;1.90;;;1.50;;
22571;SDS011;11452;53.368;14.658;2023-07-13T22:29:32;1.73;;;1.33;;
22571;SDS011;11452;53.368;14.658;2023-07-13T22:34:37;2.50;;;1.70;;
22571;SDS011;11452;53.368;14.658;2023-07-13T22:39:44;2.93;;;1.80;;
22571;SDS011;11452;53.368;14.658;2023-07-13T22:44:50;2.37;;;1.77;;
22571;SDS011;11452;53.368;14.658;2023-07-13T22:49:55;3.13;;;1.80;;
22571;SDS011;11452;53.368;14.658;2023-07-13T22:55:01;1.60;;;1.50;;
22571;SDS011;11452;53.368;14.658;2023-07-13T23:00:16;2.13;;;1.90;;
22571;SDS011;11452;53.368;14.658;2023-07-13T23:05:23;2.20;;;2.00;;
22571;SDS011;11452;53.368;14.658;2023-07-13T23:10:29;2.60;;;1.90;;
22571;SDS011;11452;53.368;14.658;2023-07-13T23:15:38;2.33;;;2.13;;
22571;SDS011;11452;53.368;14.658;2023-07-13T23:20:44;1.93;;;1.73;;
22571;SDS011;11452;53.368;14.658;2023-07-13T23:25:49;3.03;;;2.10;;
22571;SDS011;11452;53.368;14.658;2023-07-13T23:30:57;3.17;;;2.00;;
22571;SDS011;11452;53.368;14.658;2023-07-13T23:36:05;2.50;;;2.30;;
22571;SDS011;11452;53.368;14.658;2023-07-13T23:41:12;2.60;;;2.40;;
22571;SDS011;11452;53.368;14.658;2023-07-13T23:46:28;3.40;;;2.70;;
22571;SDS011;11452;53.368;14.658;2023-07-13T23:51:35;2.67;;;2.47;;
22571;SDS011;11452;53.368;14.658;2023-07-13T23:56:40;2.70;;;2.50;;
